Singer Island, Florida
Current Conditions -  °F | °C
As of 5:34 PM on Tuesday 21 Oct 2014 (Local Time) from KPBI Reporting Station
Moderate Rain Moderate Rain  
Wind Chill: 71°   Ceiling: 1600
Heat Index: 71°   Visibility: 3mi
Dew Point: 71°   Wind: 7mph
Humidity: 100%   Direction: 50°NE
Pressure: 29.94"   Gusts: NA
Location:  26.7789°N, 80.0745°W
Report Text: KPBI 212134Z 05006KT 3SM RA BR SCT006 BKN016CB OVC045 22/22 A2994 RMK AO2 TSE25 OCNL LTGIC DSNT E-SE CB OHD-ALQDS MOV E CB DSNT E-SE P0021 T02170217
Loading
Personal Weather Stations






























Interactive Weather Map New forecast layout! Learn more

10-Day Weather Forecast

Advertisements
Track Severe Weather on mobile